createdAt,value
2018-04-06T00:01:11.978Z,21.73
2018-04-06T00:03:42.688Z,15.70
2018-04-06T00:06:09.753Z,15.00
2018-04-06T00:08:37.074Z,17.50
2018-04-06T00:11:04.350Z,15.73
2018-04-06T00:13:36.788Z,19.93
2018-04-06T00:16:03.866Z,17.53
2018-04-06T00:18:31.249Z,14.73
2018-04-06T00:20:58.397Z,13.47
2018-04-06T00:23:25.923Z,12.83
2018-04-06T00:25:53.243Z,10.40
2018-04-06T00:28:20.469Z,7.43
2018-04-06T00:30:47.737Z,7.63
2018-04-06T00:33:16.006Z,6.70
2018-04-06T00:35:43.282Z,7.53
2018-04-06T00:38:10.464Z,6.70
2018-04-06T00:40:37.389Z,8.87
2018-04-06T00:43:07.901Z,8.30
2018-04-06T00:45:35.086Z,15.80
2018-04-06T00:48:02.284Z,12.73
2018-04-06T00:50:29.424Z,9.33
2018-04-06T00:52:56.621Z,13.90
2018-04-06T00:55:23.840Z,12.03
2018-04-06T00:57:51.149Z,13.80
2018-04-06T01:00:18.317Z,16.53
2018-04-06T01:02:45.573Z,14.60
2018-04-06T01:05:12.689Z,19.77
2018-04-06T01:07:40.001Z,15.13
2018-04-06T01:10:07.202Z,16.37
2018-04-06T01:12:34.494Z,16.83
2018-04-06T01:15:04.938Z,19.37
2018-04-06T01:17:32.158Z,18.83
2018-04-06T01:19:59.313Z,17.97
2018-04-06T01:22:26.502Z,14.33
2018-04-06T01:24:53.725Z,16.83
2018-04-06T01:27:21.001Z,17.97
2018-04-06T01:29:48.191Z,18.97
2018-04-06T01:32:15.342Z,20.50
2018-04-06T01:34:46.226Z,25.07
2018-04-06T01:37:13.342Z,20.70
2018-04-06T01:39:40.466Z,21.40
2018-04-06T01:42:07.491Z,29.40
2018-04-06T01:44:35.848Z,25.17
2018-04-06T01:47:03.089Z,25.33
2018-04-06T01:49:30.342Z,26.93
2018-04-06T01:51:57.538Z,19.80
2018-04-06T01:54:25.863Z,21.67
2018-04-06T01:56:53.160Z,24.07
2018-04-06T01:59:21.130Z,25.63
2018-04-06T02:01:48.270Z,24.63
2018-04-06T02:04:18.885Z,20.77
2018-04-06T02:06:46.057Z,20.00
2018-04-06T02:09:13.234Z,17.50
2018-04-06T02:11:40.533Z,17.97
2018-04-06T02:14:11.510Z,24.70
2018-04-06T02:16:38.686Z,24.37
2018-04-06T02:19:05.779Z,20.57
2018-04-06T02:21:33.077Z,17.33
2018-04-06T02:24:03.725Z,22.53
2018-04-06T02:26:30.985Z,19.47
2018-04-06T02:28:58.250Z,21.73
2018-04-06T02:31:26.273Z,22.13
2018-04-06T02:33:57.559Z,21.43
2018-04-06T02:36:24.826Z,22.23
2018-04-06T02:38:51.997Z,27.77
2018-04-06T02:41:19.186Z,15.40
2018-04-06T02:43:49.938Z,15.43
2018-04-06T02:46:17.158Z,12.17
2018-04-06T02:48:44.328Z,13.67
2018-04-06T02:51:11.523Z,12.80
2018-04-06T02:53:41.889Z,17.63
2018-04-06T02:56:08.997Z,18.67
2018-04-06T02:58:36.104Z,16.17
2018-04-06T03:01:03.231Z,15.97
2018-04-06T03:03:31.650Z,19.30
2018-04-06T03:05:58.882Z,16.97
2018-04-06T03:08:26.831Z,17.27
2018-04-06T03:10:54.020Z,19.87
2018-04-06T03:13:22.273Z,19.77
2018-04-06T03:15:49.459Z,19.40
2018-04-06T03:18:16.722Z,21.60
2018-04-06T03:20:43.877Z,17.03
2018-04-06T03:23:12.343Z,25.70
2018-04-06T03:25:39.460Z,22.87
2018-04-06T03:28:06.722Z,26.67
2018-04-06T03:30:33.847Z,26.50
2018-04-06T03:33:05.751Z,25.17
2018-04-06T03:35:33.714Z,20.40
2018-04-06T03:38:00.997Z,31.37
2018-04-06T03:40:28.147Z,22.97
2018-04-06T03:42:58.956Z,23.90
2018-04-06T03:45:26.050Z,19.77
2018-04-06T03:47:53.242Z,22.67
2018-04-06T03:50:20.464Z,19.33
2018-04-06T03:52:51.532Z,21.23
2018-04-06T03:55:18.778Z,18.53
2018-04-06T03:57:46.316Z,20.33
2018-04-06T04:00:13.591Z,25.10
2018-04-06T04:02:47.521Z,17.13
2018-04-06T04:05:14.660Z,23.60
2018-04-06T04:07:41.869Z,24.37
2018-04-06T04:10:09.123Z,22.00
2018-04-06T04:12:37.626Z,18.13
2018-04-06T04:15:04.884Z,20.70
2018-04-06T04:17:32.173Z,20.10
2018-04-06T04:19:59.313Z,21.07
2018-04-06T04:22:26.698Z,21.77
2018-04-06T04:24:53.877Z,20.47
2018-04-06T04:27:21.081Z,22.40
2018-04-06T04:29:48.295Z,20.20
2018-04-06T04:32:16.472Z,26.13
2018-04-06T04:34:43.778Z,21.17
2018-04-06T04:37:11.052Z,23.33
2018-04-06T04:39:38.138Z,27.20
2018-04-06T04:42:05.396Z,23.97
2018-04-06T04:44:33.689Z,26.37
2018-04-06T04:47:00.926Z,24.80
2018-04-06T04:49:28.135Z,24.37
2018-04-06T04:51:55.270Z,26.73
2018-04-06T04:54:23.639Z,26.80
2018-04-06T04:56:50.772Z,30.53
2018-04-06T04:59:18.303Z,27.83
2018-04-06T05:01:45.537Z,28.53
2018-04-06T05:04:16.285Z,21.20
2018-04-06T05:06:43.502Z,27.10
2018-04-06T05:09:10.575Z,26.07
2018-04-06T05:11:37.753Z,27.00
2018-04-06T05:14:06.030Z,29.40
2018-04-06T05:16:33.011Z,26.33
2018-04-06T05:19:00.164Z,35.63
2018-04-06T05:21:27.556Z,30.43
2018-04-06T05:23:55.806Z,29.37
2018-04-06T05:26:23.053Z,28.50
2018-04-06T05:28:50.274Z,22.70
2018-04-06T05:31:17.473Z,19.33
2018-04-06T05:33:48.009Z,21.50
2018-04-06T05:36:16.054Z,19.27
2018-04-06T05:38:43.380Z,28.13
2018-04-06T05:41:10.489Z,21.43
2018-04-06T05:43:41.706Z,21.07
2018-04-06T05:46:08.923Z,23.40
2018-04-06T05:48:36.297Z,20.47
2018-04-06T05:51:03.562Z,30.73
2018-04-06T05:53:34.412Z,24.17
2018-04-06T05:56:01.534Z,26.47
2018-04-06T06:05:11.206Z,34.33
2018-04-06T06:07:38.423Z,36.83
2018-04-06T06:10:05.676Z,32.40
2018-04-06T06:12:32.995Z,33.83
2018-04-06T06:15:00.139Z,27.53
2018-04-06T06:17:27.242Z,30.33
2018-04-06T06:19:54.393Z,28.77
2018-04-06T06:22:27.770Z,32.20
2018-04-06T06:24:54.863Z,24.73
2018-04-06T06:27:22.024Z,25.57
2018-04-06T06:32:37.760Z,24.65
2018-04-06T06:35:05.057Z,20.47
2018-04-06T06:37:32.398Z,18.00
2018-04-06T06:39:59.636Z,19.57
2018-04-06T06:42:30.575Z,13.13
2018-04-06T06:44:57.898Z,16.50
2018-04-06T06:47:25.853Z,17.77
2018-04-06T06:49:53.046Z,16.63
2018-04-06T06:52:23.713Z,24.00
2018-04-06T06:54:52.574Z,22.77
2018-04-06T06:57:19.744Z,24.43
2018-04-06T06:59:47.047Z,24.03
2018-04-06T07:02:14.271Z,24.50
2018-04-06T07:04:41.602Z,20.43
2018-04-06T07:07:08.910Z,25.27
2018-04-06T07:09:36.009Z,17.77
2018-04-06T07:12:03.533Z,23.97
2018-04-06T07:14:30.890Z,26.97
2018-04-06T07:16:58.137Z,21.60
2018-04-06T07:19:26.182Z,20.17
2018-04-06T07:21:53.475Z,23.83
2018-04-06T07:24:20.571Z,18.70
2018-04-06T07:26:47.813Z,16.73
2018-04-06T07:29:15.685Z,22.73
2018-04-06T07:31:42.978Z,23.83
2018-04-06T07:34:10.301Z,24.70
2018-04-06T07:36:37.565Z,22.87
2018-04-06T07:39:05.445Z,14.87
2018-04-06T07:41:32.650Z,19.27
2018-04-06T07:44:04.013Z,22.57
2018-04-06T07:46:31.172Z,20.70
2018-04-06T07:48:58.541Z,20.07
2018-04-06T07:51:25.860Z,20.20
2018-04-06T07:53:56.474Z,31.13
2018-04-06T07:56:24.449Z,19.17
2018-04-06T07:58:51.665Z,24.87
2018-04-06T08:01:18.983Z,19.20
2018-04-06T08:03:48.341Z,21.47
2018-04-06T08:06:15.644Z,19.57
2018-04-06T08:08:42.945Z,28.20
2018-04-06T08:11:10.178Z,22.23
2018-04-06T08:13:38.482Z,22.90
2018-04-06T08:16:05.743Z,21.80
2018-04-06T08:18:33.019Z,18.73
2018-04-06T08:21:00.220Z,21.50
2018-04-06T08:23:27.503Z,17.77
2018-04-06T08:25:54.803Z,19.77
2018-04-06T08:28:22.050Z,15.03
2018-04-06T08:30:49.130Z,13.07
2018-04-06T08:33:19.646Z,16.87
2018-04-06T08:35:47.005Z,16.27
2018-04-06T08:38:14.514Z,21.10
2018-04-06T08:40:41.785Z,21.77
2018-04-06T08:43:12.797Z,15.87
2018-04-06T08:45:39.945Z,18.47
2018-04-06T08:48:07.444Z,17.60
2018-04-06T08:50:34.633Z,19.73
2018-04-06T08:53:01.859Z,17.57
2018-04-06T08:55:28.839Z,14.43
2018-04-06T08:57:55.950Z,12.17
2018-04-06T09:00:23.131Z,16.57
2018-04-06T09:02:50.572Z,14.23
2018-04-06T09:05:17.618Z,15.90
2018-04-06T09:07:44.928Z,16.43
2018-04-06T09:10:12.039Z,13.73
2018-04-06T09:12:40.325Z,17.00
2018-04-06T09:15:08.058Z,19.23
2018-04-06T09:17:35.285Z,20.40
2018-04-06T09:20:02.614Z,22.87
2018-04-06T09:22:31.214Z,18.67
2018-04-06T09:24:58.504Z,14.67
2018-04-06T09:27:25.484Z,18.33
2018-04-06T09:29:52.694Z,15.80
2018-04-06T09:32:23.133Z,11.80
2018-04-06T09:34:50.422Z,16.90
2018-04-06T09:37:17.573Z,21.70
2018-04-06T09:39:44.849Z,23.03
2018-04-06T09:42:15.469Z,21.37
2018-04-06T09:44:42.594Z,15.60
2018-04-06T09:47:09.881Z,22.93
2018-04-06T09:49:37.194Z,21.13
2018-04-06T09:52:07.466Z,23.37
2018-04-06T09:54:34.660Z,20.27
2018-04-06T09:57:01.769Z,18.97
2018-04-06T09:59:28.943Z,15.80
2018-04-06T10:01:56.255Z,15.63
2018-04-06T10:04:24.201Z,17.37
2018-04-06T10:06:51.426Z,17.60
2018-04-06T10:09:19.927Z,19.77
2018-04-06T10:11:50.497Z,16.97
2018-04-06T10:14:17.669Z,17.47
2018-04-06T10:16:45.391Z,19.50
2018-04-06T10:19:12.793Z,21.20
2018-04-06T10:21:43.778Z,21.43
2018-04-06T10:24:11.016Z,19.13
2018-04-06T10:26:38.245Z,23.50
2018-04-06T10:29:05.522Z,20.03
2018-04-06T10:31:36.268Z,19.13
2018-04-06T10:34:03.310Z,18.03
2018-04-06T10:36:30.650Z,15.43
2018-04-06T10:38:57.939Z,15.03
2018-04-06T10:41:26.414Z,18.07
2018-04-06T10:43:53.662Z,16.93
2018-04-06T10:46:20.956Z,13.27
2018-04-06T10:48:48.305Z,18.53
2018-04-06T10:51:15.615Z,14.60
2018-04-06T10:53:42.824Z,10.90
2018-04-06T10:56:10.107Z,10.33
2018-04-06T10:58:37.333Z,11.60
2018-04-06T11:01:05.238Z,14.20
2018-04-06T11:03:33.516Z,14.20
2018-04-06T11:06:00.810Z,10.70
2018-04-06T11:08:27.999Z,10.17
2018-04-06T11:10:55.238Z,8.43
2018-04-06T11:13:23.613Z,12.20
2018-04-06T11:15:50.768Z,7.63
2018-04-06T11:18:18.034Z,14.57
2018-04-06T11:20:45.330Z,14.87
2018-04-06T11:23:16.365Z,10.97
2018-04-06T11:25:43.642Z,12.47
2018-04-06T11:28:10.749Z,11.70
2018-04-06T11:30:38.035Z,8.23
2018-04-06T11:33:05.196Z,16.67
2018-04-06T11:35:32.244Z,16.50
2018-04-06T11:37:59.544Z,19.90
2018-04-06T11:40:26.805Z,16.17
2018-04-06T11:42:55.003Z,14.83
2018-04-06T11:45:22.185Z,13.03
2018-04-06T11:47:49.452Z,13.07
2018-04-06T11:50:16.850Z,19.93
2018-04-06T11:52:45.105Z,17.50
2018-04-06T11:55:12.422Z,11.73
2018-04-06T11:57:39.722Z,16.53
2018-04-06T12:00:06.824Z,16.57
2018-04-06T12:02:35.409Z,10.97
2018-04-06T12:05:02.614Z,9.37
2018-04-06T12:07:29.958Z,15.20
2018-04-06T12:09:57.107Z,15.17
2018-04-06T12:12:26.054Z,13.37
2018-04-06T12:14:53.226Z,20.40
2018-04-06T12:17:20.745Z,15.80
2018-04-06T12:19:47.890Z,15.17
2018-04-06T12:22:15.198Z,11.80
2018-04-06T12:24:42.517Z,16.93
2018-04-06T12:27:09.631Z,18.17
2018-04-06T12:29:36.809Z,17.43
2018-04-06T12:32:08.153Z,12.43
2018-04-06T12:34:35.392Z,14.83
2018-04-06T12:37:02.505Z,14.87
2018-04-06T12:39:29.794Z,12.97
2018-04-06T12:41:58.086Z,11.40
2018-04-06T12:44:25.605Z,13.33
2018-04-06T12:46:52.912Z,13.30
2018-04-06T12:49:20.101Z,15.43
2018-04-06T12:51:50.910Z,20.80
2018-04-06T12:54:18.112Z,14.23
2018-04-06T12:56:45.410Z,13.47
2018-04-06T12:59:12.641Z,14.07
2018-04-06T13:09:53.974Z,15.07
2018-04-06T13:12:22.418Z,10.37
2018-04-06T13:14:49.553Z,18.57
2018-04-06T13:17:16.833Z,13.57
2018-04-06T13:19:44.540Z,10.00
2018-04-06T13:22:16.842Z,13.33
2018-04-06T13:24:44.974Z,14.10
2018-04-06T13:27:12.214Z,15.00
2018-04-06T13:29:39.495Z,18.20
2018-04-06T13:32:12.942Z,9.53
2018-04-06T13:34:40.103Z,14.60
2018-04-06T13:37:07.325Z,13.77
2018-04-06T13:39:34.583Z,17.13
2018-04-06T13:42:04.795Z,19.07
2018-04-06T13:44:32.087Z,8.43
2018-04-06T13:46:59.325Z,15.23
2018-04-06T13:49:26.539Z,11.87
2018-04-06T13:51:54.667Z,14.77
2018-04-06T13:54:21.855Z,12.87
2018-04-06T13:56:49.225Z,14.17
2018-04-06T13:59:16.478Z,14.50
2018-04-06T14:01:47.359Z,15.70
2018-04-06T14:04:14.457Z,13.17
2018-04-06T14:06:42.422Z,21.87
2018-04-06T14:09:09.662Z,12.80
2018-04-06T14:11:38.837Z,11.97
2018-04-06T14:14:06.949Z,12.87
2018-04-06T14:16:34.291Z,16.37
2018-04-06T14:19:01.591Z,17.47
2018-04-06T14:21:28.892Z,18.53
2018-04-06T14:23:56.242Z,18.97
2018-04-06T14:26:23.506Z,22.47
2018-04-06T14:28:50.758Z,14.73
2018-04-06T14:31:18.008Z,11.90
2018-04-06T14:33:45.240Z,18.40
2018-04-06T14:36:12.550Z,15.23
2018-04-06T14:38:40.582Z,15.57
2018-04-06T14:41:09.570Z,18.17
2018-04-06T14:43:36.622Z,9.47
2018-04-06T14:46:04.017Z,17.97
2018-04-06T14:48:31.194Z,11.70
2018-04-06T14:50:59.707Z,15.10
2018-04-06T14:53:27.058Z,14.17
2018-04-06T14:55:54.327Z,15.17
2018-04-06T14:58:21.594Z,16.27
2018-04-06T15:00:52.763Z,19.40
2018-04-06T15:03:20.026Z,19.80
2018-04-06T15:05:47.226Z,17.83
2018-04-06T15:08:14.519Z,14.83
2018-04-06T15:10:44.848Z,13.57
2018-04-06T15:13:12.215Z,20.93
2018-04-06T15:15:39.518Z,17.00
2018-04-06T15:18:07.061Z,15.80
2018-04-06T15:20:34.351Z,20.83
2018-04-06T15:23:01.694Z,14.97
2018-04-06T15:25:29.087Z,19.20
2018-04-06T15:27:56.312Z,13.00
2018-04-06T15:30:23.645Z,21.70
2018-04-06T15:32:51.947Z,16.57
2018-04-06T15:35:19.240Z,18.53
2018-04-06T15:37:46.585Z,17.40
2018-04-06T15:40:13.794Z,22.57
2018-04-06T15:42:46.770Z,22.87
2018-04-06T15:45:14.194Z,24.73
2018-04-06T15:47:41.460Z,12.27
2018-04-06T15:50:08.830Z,19.77
2018-04-06T15:52:37.087Z,16.50
2018-04-06T15:55:04.238Z,34.23
2018-04-06T15:57:31.570Z,47.53
2018-04-06T15:59:59.362Z,33.53
2018-04-06T16:02:28.381Z,19.37
2018-04-06T16:04:56.666Z,13.80
2018-04-06T16:07:24.033Z,11.80
2018-04-06T16:09:51.180Z,19.47
2018-04-06T16:12:24.437Z,23.13
2018-04-06T16:14:51.658Z,20.57
2018-04-06T16:17:18.744Z,30.17
2018-04-06T16:19:46.133Z,19.10
2018-04-06T16:22:20.498Z,19.30
2018-04-06T16:24:48.144Z,21.40
2018-04-06T16:27:15.537Z,21.93
2018-04-06T16:29:42.678Z,16.80
2018-04-06T16:32:09.964Z,13.80
2018-04-06T16:34:37.165Z,23.83
2018-04-06T16:37:05.048Z,23.20
2018-04-06T16:39:32.209Z,15.10
2018-04-06T16:42:00.978Z,14.30
2018-04-06T16:44:28.329Z,16.23
2018-04-06T16:46:58.752Z,17.13
2018-04-06T16:49:27.132Z,13.13
2018-04-06T16:51:54.599Z,15.00
2018-04-06T16:54:21.822Z,16.27
2018-04-06T16:56:49.073Z,11.73
2018-04-06T16:59:16.377Z,16.07
2018-04-06T17:01:47.474Z,9.83
2018-04-06T17:04:14.694Z,13.67
2018-04-06T17:06:41.923Z,16.67
2018-04-06T17:09:09.168Z,13.40
2018-04-06T17:12:59.455Z,9.82
2018-04-06T17:15:26.830Z,10.70
2018-04-06T17:17:54.137Z,10.03
2018-04-06T17:20:21.551Z,14.10
2018-04-06T17:22:51.664Z,12.90
2018-04-06T17:25:20.392Z,23.07
2018-04-06T17:27:48.728Z,9.53
2018-04-06T17:30:17.941Z,13.13
2018-04-06T17:32:46.874Z,6.87
2018-04-06T17:35:15.599Z,8.77
2018-04-06T17:37:42.807Z,10.90
2018-04-06T17:40:09.984Z,11.80
2018-04-06T17:42:37.170Z,10.77
2018-04-06T17:45:04.313Z,11.13
2018-04-06T17:47:31.570Z,8.87
2018-04-06T17:49:58.731Z,12.37
2018-04-06T17:52:26.868Z,10.33
2018-04-06T17:54:54.163Z,9.80
2018-04-06T17:57:21.378Z,12.73
2018-04-06T17:59:49.390Z,12.73
2018-04-06T18:02:20.136Z,6.70
2018-04-06T18:04:47.378Z,10.53
2018-04-06T18:07:14.725Z,12.77
2018-04-06T18:09:41.894Z,8.97
2018-04-06T18:12:12.802Z,11.60
2018-04-06T18:14:40.064Z,9.90
2018-04-06T18:17:07.259Z,14.17
2018-04-06T18:19:34.582Z,10.03
2018-04-06T18:22:02.676Z,10.00
2018-04-06T18:24:29.920Z,7.77
2018-04-06T18:26:57.196Z,6.80
2018-04-06T18:29:24.474Z,14.83
2018-04-06T18:31:55.443Z,9.67
2018-04-06T18:34:22.783Z,11.00
2018-04-06T18:36:49.982Z,6.67
2018-04-06T18:39:18.007Z,7.80
2018-04-06T18:41:45.415Z,9.20
2018-04-06T18:44:13.178Z,14.87
2018-04-06T18:46:40.294Z,9.80
2018-04-06T18:49:07.457Z,12.17
2018-04-06T18:51:41.292Z,5.20
2018-04-06T18:54:09.304Z,7.90
2018-04-06T18:56:36.619Z,7.50
2018-04-06T18:59:04.258Z,7.50
2018-04-06T19:01:31.584Z,8.33
2018-04-06T19:03:58.964Z,7.93
2018-04-06T19:06:26.301Z,6.13
2018-04-06T19:08:53.872Z,7.00
2018-04-06T19:11:21.162Z,8.33
2018-04-06T19:13:48.471Z,7.37
2018-04-06T19:16:15.831Z,7.43
2018-04-06T19:18:43.170Z,8.23
2018-04-06T19:21:20.967Z,8.57
2018-04-06T19:23:48.223Z,7.50
2018-04-06T19:26:15.521Z,7.37
2018-04-06T19:28:42.668Z,10.17
2018-04-06T19:31:10.090Z,8.00
2018-04-06T19:33:37.685Z,5.03
2018-04-06T19:36:05.335Z,7.13
2018-04-06T19:38:32.529Z,11.53
2018-04-06T19:40:59.991Z,8.53
2018-04-06T19:43:27.241Z,6.93
2018-04-06T19:45:54.379Z,5.93
2018-04-06T19:48:22.015Z,7.87
2018-04-06T19:50:56.800Z,10.13
2018-04-06T19:53:24.064Z,5.10
2018-04-06T19:55:52.399Z,7.40
2018-04-06T19:58:19.699Z,8.60
2018-04-06T20:00:48.041Z,8.00
2018-04-06T20:03:15.578Z,10.00
2018-04-06T20:05:42.679Z,6.20
2018-04-06T20:08:09.999Z,9.23
2018-04-06T20:10:40.506Z,9.27
2018-04-06T20:13:07.950Z,6.57
2018-04-06T20:15:35.282Z,8.23
2018-04-06T20:18:02.631Z,7.93
2018-04-06T20:20:30.854Z,10.30
2018-04-06T20:22:58.810Z,6.83
2018-04-06T20:25:26.174Z,4.83
2018-04-06T20:27:53.495Z,9.33
2018-04-06T20:30:31.352Z,6.80
2018-04-06T20:32:58.554Z,10.20
2018-04-06T20:35:25.868Z,10.93
2018-04-06T20:37:53.180Z,5.83
2018-04-06T20:40:21.381Z,9.47
2018-04-06T20:42:48.682Z,7.17
2018-04-06T20:45:17.573Z,9.03
2018-04-06T20:47:44.744Z,10.10
2018-04-06T20:50:16.070Z,11.07
2018-04-06T20:52:44.066Z,9.83
2018-04-06T20:55:12.026Z,11.40
2018-04-06T20:57:39.370Z,6.20
2018-04-06T21:00:10.299Z,7.23
2018-04-06T21:02:38.270Z,6.07
2018-04-06T21:05:05.996Z,6.77
2018-04-06T21:07:33.151Z,6.60
2018-04-06T21:10:00.279Z,10.53
2018-04-06T21:12:27.462Z,7.17
2018-04-06T21:14:54.702Z,8.30
2018-04-06T21:17:21.910Z,7.17
2018-04-06T21:19:59.211Z,7.17
2018-04-06T21:22:26.561Z,8.43
2018-04-06T21:25:01.156Z,8.27
2018-04-06T21:27:28.921Z,10.77
2018-04-06T21:30:00.699Z,8.07
2018-04-06T21:32:27.935Z,5.47
2018-04-06T21:34:55.262Z,9.53
2018-04-06T21:37:22.497Z,6.47
2018-04-06T21:39:53.329Z,7.17
2018-04-06T21:42:21.026Z,5.40
2018-04-06T21:44:48.364Z,6.97
2018-04-06T21:47:16.249Z,6.10
2018-04-06T21:49:54.302Z,6.50
2018-04-06T21:52:21.590Z,5.97
2018-04-06T21:54:48.842Z,4.27
2018-04-06T21:57:16.138Z,6.27
2018-04-06T21:59:47.507Z,4.50
2018-04-06T22:02:14.722Z,5.20
2018-04-06T22:04:42.097Z,8.63
2018-04-06T22:07:09.346Z,7.13
2018-04-06T22:09:37.506Z,6.73
2018-04-06T22:12:04.718Z,6.97
2018-04-06T22:14:31.867Z,5.20
2018-04-06T22:16:59.095Z,6.03
2018-04-06T22:19:26.428Z,7.07
2018-04-06T22:21:54.866Z,9.33
2018-04-06T22:24:22.158Z,6.90
2018-04-06T22:26:49.382Z,4.63
2018-04-06T22:29:16.521Z,6.93
2018-04-06T22:31:51.315Z,7.33
2018-04-06T22:34:18.550Z,5.40
2018-04-06T22:36:45.755Z,7.10
2018-04-06T22:39:12.932Z,7.10
2018-04-06T22:41:41.358Z,5.07
2018-04-06T22:44:08.537Z,8.30
2018-04-06T22:46:35.858Z,4.70
2018-04-06T22:49:03.039Z,4.67
2018-04-06T22:51:31.486Z,6.07
2018-04-06T22:53:58.838Z,6.73
2018-04-06T22:56:25.960Z,4.73
2018-04-06T22:58:53.842Z,7.20
2018-04-06T23:01:24.101Z,5.60
2018-04-06T23:03:51.341Z,7.20
2018-04-06T23:06:19.333Z,7.37
2018-04-06T23:08:47.030Z,4.47
2018-04-06T23:11:14.702Z,6.50
2018-04-06T23:13:41.985Z,7.20
2018-04-06T23:16:09.275Z,5.63
2018-04-06T23:18:36.947Z,4.20
2018-04-06T23:21:08.138Z,4.83
2018-04-06T23:23:35.470Z,7.30
2018-04-06T23:26:02.642Z,7.80
2018-04-06T23:28:30.145Z,8.60
2018-04-06T23:31:01.021Z,5.67
2018-04-06T23:33:28.338Z,7.03
2018-04-06T23:35:55.587Z,11.43
2018-04-06T23:38:23.196Z,5.73
2018-04-06T23:41:02.186Z,6.67
2018-04-06T23:43:29.390Z,5.43
2018-04-06T23:45:56.632Z,10.57
2018-04-06T23:48:23.789Z,5.43
2018-04-06T23:50:52.262Z,6.07
2018-04-06T23:53:20.205Z,4.07
2018-04-06T23:55:47.571Z,3.20
2018-04-06T23:58:14.674Z,3.80
